sensor_id;sensor_type;location;lat;lon;timestamp;pressure;altitude;pressure_sealevel;temperature;humidity
68301;BME280;55146;47.468;18.806;2022-07-01T00:00:45;99590.44;;;24.94;65.61
68301;BME280;55146;47.468;18.806;2022-07-01T00:03:11;99594.84;;;24.92;65.83
68301;BME280;55146;47.468;18.806;2022-07-01T00:05:36;99591.13;;;24.88;66.58
68301;BME280;55146;47.468;18.806;2022-07-01T00:08:01;99593.94;;;24.88;67.09
68301;BME280;55146;47.468;18.806;2022-07-01T00:10:27;99590.72;;;24.86;67.52
68301;BME280;55146;47.468;18.806;2022-07-01T00:12:52;99588.16;;;24.77;67.87
68301;BME280;55146;47.468;18.806;2022-07-01T00:15:17;99593.06;;;24.80;67.69
68301;BME280;55146;47.468;18.806;2022-07-01T00:17:43;99587.31;;;24.73;68.36
68301;BME280;55146;47.468;18.806;2022-07-01T00:20:09;99588.94;;;24.74;67.93
68301;BME280;55146;47.468;18.806;2022-07-01T00:22:35;99596.03;;;24.65;68.59
68301;BME280;55146;47.468;18.806;2022-07-01T00:25:00;99579.59;;;24.67;68.95
68301;BME280;55146;47.468;18.806;2022-07-01T00:27:26;99589.13;;;24.58;69.69
68301;BME280;55146;47.468;18.806;2022-07-01T00:29:51;99590.31;;;24.57;69.93
68301;BME280;55146;47.468;18.806;2022-07-01T00:32:16;99585.12;;;24.59;70.03
68301;BME280;55146;47.468;18.806;2022-07-01T00:34:42;99586.41;;;24.66;70.44
68301;BME280;55146;47.468;18.806;2022-07-01T00:37:07;99581.41;;;24.52;70.96
68301;BME280;55146;47.468;18.806;2022-07-01T00:39:32;99579.03;;;24.54;71.06
68301;BME280;55146;47.468;18.806;2022-07-01T00:42:02;99589.41;;;24.50;71.20
68301;BME280;55146;47.468;18.806;2022-07-01T00:44:28;99591.72;;;24.44;71.53
68301;BME280;55146;47.468;18.806;2022-07-01T00:46:54;99584.44;;;24.40;72.09
68301;BME280;55146;47.468;18.806;2022-07-01T00:49:19;99593.34;;;24.45;71.91
68301;BME280;55146;47.468;18.806;2022-07-01T00:51:45;99586.75;;;24.34;72.33
68301;BME280;55146;47.468;18.806;2022-07-01T00:54:11;99591.53;;;24.30;72.36
68301;BME280;55146;47.468;18.806;2022-07-01T00:56:37;99585.09;;;24.30;72.79
68301;BME280;55146;47.468;18.806;2022-07-01T00:59:03;99588.25;;;24.25;72.71
68301;BME280;55146;47.468;18.806;2022-07-01T01:01:28;99585.00;;;24.23;72.83
68301;BME280;55146;47.468;18.806;2022-07-01T01:03:54;99585.34;;;24.21;72.98
68301;BME280;55146;47.468;18.806;2022-07-01T01:06:20;99585.72;;;24.19;72.76
68301;BME280;55146;47.468;18.806;2022-07-01T01:08:46;99591.22;;;24.12;72.98
68301;BME280;55146;47.468;18.806;2022-07-01T01:11:15;99591.72;;;24.18;72.53
68301;BME280;55146;47.468;18.806;2022-07-01T01:13:40;99588.41;;;24.12;72.59
68301;BME280;55146;47.468;18.806;2022-07-01T01:16:05;99588.41;;;24.12;72.44
68301;BME280;55146;47.468;18.806;2022-07-01T01:18:31;99579.91;;;24.09;72.40
68301;BME280;55146;47.468;18.806;2022-07-01T01:20:56;99584.59;;;24.01;72.53
68301;BME280;55146;47.468;18.806;2022-07-01T01:23:22;99577.44;;;24.04;72.61
68301;BME280;55146;47.468;18.806;2022-07-01T01:25:48;99588.91;;;23.95;72.90
68301;BME280;55146;47.468;18.806;2022-07-01T01:28:13;99588.91;;;23.95;72.87
68301;BME280;55146;47.468;18.806;2022-07-01T01:30:39;99588.91;;;23.95;72.85
68301;BME280;55146;47.468;18.806;2022-07-01T01:33:04;99590.50;;;23.93;72.52
68301;BME280;55146;47.468;18.806;2022-07-01T01:35:29;99595.19;;;23.85;72.97
68301;BME280;55146;47.468;18.806;2022-07-01T01:37:56;99586.72;;;23.82;73.04
68301;BME280;55146;47.468;18.806;2022-07-01T01:40:22;99584.13;;;23.73;73.36
68301;BME280;55146;47.468;18.806;2022-07-01T01:42:47;99592.19;;;23.74;73.66
68301;BME280;55146;47.468;18.806;2022-07-01T01:45:12;99584.91;;;23.70;73.75
68301;BME280;55146;47.468;18.806;2022-07-01T01:47:38;99586.94;;;23.73;73.63
68301;BME280;55146;47.468;18.806;2022-07-01T01:50:07;99588.00;;;23.65;74.09
68301;BME280;55146;47.468;18.806;2022-07-01T01:52:33;99578.47;;;23.69;73.71
68301;BME280;55146;47.468;18.806;2022-07-01T01:54:59;99582.97;;;23.74;73.46
68301;BME280;55146;47.468;18.806;2022-07-01T01:57:25;99581.53;;;23.61;73.94
68301;BME280;55146;47.468;18.806;2022-07-01T01:59:50;99575.03;;;23.57;74.15
68301;BME280;55146;47.468;18.806;2022-07-01T02:02:16;99581.37;;;23.54;74.46
68301;BME280;55146;47.468;18.806;2022-07-01T02:04:41;99570.59;;;23.56;74.26
68301;BME280;55146;47.468;18.806;2022-07-01T02:07:07;99571.72;;;23.51;73.98
68301;BME280;55146;47.468;18.806;2022-07-01T02:09:32;99575.28;;;23.48;74.30
68301;BME280;55146;47.468;18.806;2022-07-01T02:11:58;99568.59;;;23.56;73.76
68301;BME280;55146;47.468;18.806;2022-07-01T02:14:23;99566.91;;;23.52;73.94
68301;BME280;55146;47.468;18.806;2022-07-01T02:16:48;99569.66;;;23.48;74.08
68301;BME280;55146;47.468;18.806;2022-07-01T02:19:14;99582.06;;;23.47;73.90
68301;BME280;55146;47.468;18.806;2022-07-01T02:21:39;99568.75;;;23.44;74.08
68301;BME280;55146;47.468;18.806;2022-07-01T02:24:05;99578.28;;;23.39;74.28
68301;BME280;55146;47.468;18.806;2022-07-01T02:26:30;99577.78;;;23.34;74.40
68301;BME280;55146;47.468;18.806;2022-07-01T02:28:55;99576.84;;;23.26;74.73
68301;BME280;55146;47.468;18.806;2022-07-01T02:31:21;99580.91;;;23.29;74.55
68301;BME280;55146;47.468;18.806;2022-07-01T02:33:47;99588.59;;;23.32;74.62
68301;BME280;55146;47.468;18.806;2022-07-01T02:36:12;99586.81;;;23.24;74.79
68301;BME280;55146;47.468;18.806;2022-07-01T02:38:38;99585.94;;;23.20;75.02
68301;BME280;55146;47.468;18.806;2022-07-01T02:41:03;99593.09;;;23.17;75.06
68301;BME280;55146;47.468;18.806;2022-07-01T02:43:29;99596.87;;;23.25;74.68
68301;BME280;55146;47.468;18.806;2022-07-01T02:45:56;99601.06;;;23.15;75.12
68301;BME280;55146;47.468;18.806;2022-07-01T02:48:22;99601.38;;;23.10;75.28
68301;BME280;55146;47.468;18.806;2022-07-01T02:50:47;99602.84;;;23.04;75.36
68301;BME280;55146;47.468;18.806;2022-07-01T02:53:12;99606.78;;;22.99;75.22
68301;BME280;55146;47.468;18.806;2022-07-01T02:55:38;99601.97;;;23.00;75.13
68301;BME280;55146;47.468;18.806;2022-07-01T02:58:03;99600.88;;;23.05;74.66
68301;BME280;55146;47.468;18.806;2022-07-01T03:00:29;99603.97;;;22.99;74.68
68301;BME280;55146;47.468;18.806;2022-07-01T03:02:54;99609.66;;;23.03;74.52
68301;BME280;55146;47.468;18.806;2022-07-01T03:05:20;99614.59;;;23.10;74.34
68301;BME280;55146;47.468;18.806;2022-07-01T03:07:46;99608.84;;;23.03;74.53
68301;BME280;55146;47.468;18.806;2022-07-01T03:10:11;99616.59;;;22.90;74.77
68301;BME280;55146;47.468;18.806;2022-07-01T03:12:37;99614.59;;;22.90;74.76
68301;BME280;55146;47.468;18.806;2022-07-01T03:15:09;99622.28;;;22.93;74.74
68301;BME280;55146;47.468;18.806;2022-07-01T03:17:37;99616.69;;;22.93;74.75
68301;BME280;55146;47.468;18.806;2022-07-01T03:20:03;99626.31;;;22.96;74.81
68301;BME280;55146;47.468;18.806;2022-07-01T03:22:31;99627.59;;;22.98;74.73
68301;BME280;55146;47.468;18.806;2022-07-01T03:24:57;99629.94;;;22.96;74.85
68301;BME280;55146;47.468;18.806;2022-07-01T03:27:23;99637.19;;;22.97;75.08
68301;BME280;55146;47.468;18.806;2022-07-01T03:29:49;99649.97;;;22.95;75.33
68301;BME280;55146;47.468;18.806;2022-07-01T03:32:15;99654.03;;;22.97;75.69
68301;BME280;55146;47.468;18.806;2022-07-01T03:34:50;99659.06;;;22.88;75.60
68301;BME280;55146;47.468;18.806;2022-07-01T03:37:16;99665.84;;;22.87;75.64
68301;BME280;55146;47.468;18.806;2022-07-01T03:39:43;99666.28;;;22.89;75.55
68301;BME280;55146;47.468;18.806;2022-07-01T03:42:08;99669.38;;;22.84;75.99
68301;BME280;55146;47.468;18.806;2022-07-01T03:44:34;99673.09;;;22.88;76.16
68301;BME280;55146;47.468;18.806;2022-07-01T03:47:00;99673.09;;;22.88;76.56
68301;BME280;55146;47.468;18.806;2022-07-01T03:49:26;99673.09;;;22.88;76.85
68301;BME280;55146;47.468;18.806;2022-07-01T03:51:52;99680.59;;;22.84;76.52
68301;BME280;55146;47.468;18.806;2022-07-01T03:54:17;99674.63;;;22.86;76.04
68301;BME280;55146;47.468;18.806;2022-07-01T03:56:59;99675.88;;;22.88;75.90
68301;BME280;55146;47.468;18.806;2022-07-01T03:59:26;99672.69;;;22.90;75.42
68301;BME280;55146;47.468;18.806;2022-07-01T04:01:55;99676.97;;;22.84;76.04
68301;BME280;55146;47.468;18.806;2022-07-01T04:04:22;99677.78;;;22.84;75.80
68301;BME280;55146;47.468;18.806;2022-07-01T04:06:47;99681.41;;;22.85;75.56
68301;BME280;55146;47.468;18.806;2022-07-01T04:09:15;99685.12;;;22.89;76.06
68301;BME280;55146;47.468;18.806;2022-07-01T04:11:42;99683.25;;;22.96;75.83
68301;BME280;55146;47.468;18.806;2022-07-01T04:14:08;99686.63;;;23.02;75.96
68301;BME280;55146;47.468;18.806;2022-07-01T04:16:34;99685.50;;;23.07;75.79
68301;BME280;55146;47.468;18.806;2022-07-01T04:19:00;99677.97;;;23.11;75.50
68301;BME280;55146;47.468;18.806;2022-07-01T04:21:25;99672.87;;;23.16;75.65
68301;BME280;55146;47.468;18.806;2022-07-01T04:24:09;99668.88;;;23.17;75.45
68301;BME280;55146;47.468;18.806;2022-07-01T04:26:35;99663.56;;;23.12;75.42
68301;BME280;55146;47.468;18.806;2022-07-01T04:29:00;99672.66;;;23.25;75.17
68301;BME280;55146;47.468;18.806;2022-07-01T04:31:26;99673.03;;;23.23;75.55
68301;BME280;55146;47.468;18.806;2022-07-01T04:33:51;99670.22;;;23.23;74.54
68301;BME280;55146;47.468;18.806;2022-07-01T04:36:17;99670.00;;;23.32;74.50
68301;BME280;55146;47.468;18.806;2022-07-01T04:38:42;99676.50;;;23.36;74.95
68301;BME280;55146;47.468;18.806;2022-07-01T04:41:08;99662.59;;;23.43;75.20
68301;BME280;55146;47.468;18.806;2022-07-01T04:43:52;99658.97;;;23.43;75.46
68301;BME280;55146;47.468;18.806;2022-07-01T04:46:17;99658.53;;;23.40;75.12
68301;BME280;55146;47.468;18.806;2022-07-01T04:48:43;99656.22;;;23.46;75.18
68301;BME280;55146;47.468;18.806;2022-07-01T04:51:08;99657.97;;;23.51;75.15
68301;BME280;55146;47.468;18.806;2022-07-01T04:53:34;99650.41;;;23.55;75.73
68301;BME280;55146;47.468;18.806;2022-07-01T04:55:59;99658.53;;;23.60;75.78
68301;BME280;55146;47.468;18.806;2022-07-01T04:58:24;99657.41;;;23.64;74.50
68301;BME280;55146;47.468;18.806;2022-07-01T05:00:51;99660.75;;;23.70;74.77
68301;BME280;55146;47.468;18.806;2022-07-01T05:03:17;99653.62;;;23.76;74.79
68301;BME280;55146;47.468;18.806;2022-07-01T05:05:42;99665.97;;;23.71;73.58
68301;BME280;55146;47.468;18.806;2022-07-01T05:08:08;99661.31;;;23.79;73.67
68301;BME280;55146;47.468;18.806;2022-07-01T05:10:33;99662.34;;;23.71;74.67
68301;BME280;55146;47.468;18.806;2022-07-01T05:12:59;99672.19;;;23.81;74.85
68301;BME280;55146;47.468;18.806;2022-07-01T05:15:24;99676.84;;;23.96;74.62
68301;BME280;55146;47.468;18.806;2022-07-01T05:17:49;99672.53;;;24.02;74.55
68301;BME280;55146;47.468;18.806;2022-07-01T05:20:33;99670.31;;;24.11;74.61
68301;BME280;55146;47.468;18.806;2022-07-01T05:23:17;99674.59;;;24.24;74.39
68301;BME280;55146;47.468;18.806;2022-07-01T05:25:43;99669.94;;;24.35;73.74
68301;BME280;55146;47.468;18.806;2022-07-01T05:28:08;99676.88;;;24.41;73.59
68301;BME280;55146;47.468;18.806;2022-07-01T05:30:33;99673.00;;;24.49;74.17
68301;BME280;55146;47.468;18.806;2022-07-01T05:32:59;99676.53;;;24.73;72.97
68301;BME280;55146;47.468;18.806;2022-07-01T05:35:24;99674.47;;;24.92;73.17
68301;BME280;55146;47.468;18.806;2022-07-01T05:37:49;99681.16;;;25.14;72.33
68301;BME280;55146;47.468;18.806;2022-07-01T05:40:15;99682.31;;;25.39;71.84
68301;BME280;55146;47.468;18.806;2022-07-01T05:42:40;99698.69;;;25.60;71.00
68301;BME280;55146;47.468;18.806;2022-07-01T05:45:06;99692.19;;;25.93;68.55
68301;BME280;55146;47.468;18.806;2022-07-01T05:47:31;99693.97;;;26.12;67.78
68301;BME280;55146;47.468;18.806;2022-07-01T05:49:57;99695.84;;;26.34;67.25
68301;BME280;55146;47.468;18.806;2022-07-01T05:52:22;99703.25;;;26.56;65.69
68301;BME280;55146;47.468;18.806;2022-07-01T05:54:47;99709.06;;;26.81;63.79
68301;BME280;55146;47.468;18.806;2022-07-01T05:57:13;99708.78;;;26.93;63.98
68301;BME280;55146;47.468;18.806;2022-07-01T05:59:38;99704.00;;;27.05;64.59
68301;BME280;55146;47.468;18.806;2022-07-01T06:02:04;99697.66;;;27.22;61.99
68301;BME280;55146;47.468;18.806;2022-07-01T06:04:29;99702.97;;;27.41;61.24
68301;BME280;55146;47.468;18.806;2022-07-01T06:06:54;99701.88;;;27.67;60.01
68301;BME280;55146;47.468;18.806;2022-07-01T06:09:20;99703.16;;;27.91;57.96
68301;BME280;55146;47.468;18.806;2022-07-01T06:11:45;99702.03;;;28.20;56.83
68301;BME280;55146;47.468;18.806;2022-07-01T06:14:11;99707.69;;;28.41;56.17
68301;BME280;55146;47.468;18.806;2022-07-01T06:16:37;99703.25;;;28.62;55.83
68301;BME280;55146;47.468;18.806;2022-07-01T06:19:04;99700.00;;;28.84;55.07
68301;BME280;55146;47.468;18.806;2022-07-01T06:21:29;99711.69;;;29.18;54.63
68301;BME280;55146;47.468;18.806;2022-07-01T06:23:54;99710.44;;;29.37;53.68
68301;BME280;55146;47.468;18.806;2022-07-01T06:26:20;99712.28;;;29.72;53.48
68301;BME280;55146;47.468;18.806;2022-07-01T06:28:45;99719.09;;;29.92;52.37
68301;BME280;55146;47.468;18.806;2022-07-01T06:31:10;99717.78;;;30.11;51.57
68301;BME280;55146;47.468;18.806;2022-07-01T06:33:36;99716.53;;;30.12;51.44
68301;BME280;55146;47.468;18.806;2022-07-01T06:36:01;99720.75;;;30.48;50.67
68301;BME280;55146;47.468;18.806;2022-07-01T06:38:28;99719.44;;;30.60;50.79
68301;BME280;55146;47.468;18.806;2022-07-01T06:40:54;99724.38;;;30.52;50.14
68301;BME280;55146;47.468;18.806;2022-07-01T06:43:38;99722.34;;;30.98;49.84
68301;BME280;55146;47.468;18.806;2022-07-01T06:46:04;99717.06;;;30.96;48.82
68301;BME280;55146;47.468;18.806;2022-07-01T06:48:30;99722.88;;;30.82;50.74
68301;BME280;55146;47.468;18.806;2022-07-01T06:50:55;99716.09;;;31.13;50.43
68301;BME280;55146;47.468;18.806;2022-07-01T06:53:20;99720.66;;;31.41;48.89
68301;BME280;55146;47.468;18.806;2022-07-01T06:55:46;99715.38;;;31.40;48.39
68301;BME280;55146;47.468;18.806;2022-07-01T06:58:11;99717.69;;;31.52;47.01
68301;BME280;55146;47.468;18.806;2022-07-01T07:00:36;99716.25;;;31.70;47.69
68301;BME280;55146;47.468;18.806;2022-07-01T07:03:02;99725.09;;;32.06;46.24
68301;BME280;55146;47.468;18.806;2022-07-01T07:05:27;99719.50;;;31.99;46.58
68301;BME280;55146;47.468;18.806;2022-07-01T07:07:56;99716.91;;;31.82;46.30
68301;BME280;55146;47.468;18.806;2022-07-01T07:10:21;99708.50;;;32.01;47.24
68301;BME280;55146;47.468;18.806;2022-07-01T07:12:47;99713.41;;;32.28;47.91
68301;BME280;55146;47.468;18.806;2022-07-01T07:15:12;99709.25;;;32.32;46.67
68301;BME280;55146;47.468;18.806;2022-07-01T07:17:37;99707.66;;;32.31;46.16
68301;BME280;55146;47.468;18.806;2022-07-01T07:20:03;99711.13;;;32.66;45.39
68301;BME280;55146;47.468;18.806;2022-07-01T07:22:28;99708.62;;;32.71;45.24
68301;BME280;55146;47.468;18.806;2022-07-01T07:24:54;99716.09;;;32.62;46.48
68301;BME280;55146;47.468;18.806;2022-07-01T07:27:19;99709.41;;;32.72;45.02
68301;BME280;55146;47.468;18.806;2022-07-01T07:29:45;99704.59;;;32.92;44.36
68301;BME280;55146;47.468;18.806;2022-07-01T07:32:10;99708.16;;;32.96;42.75
68301;BME280;55146;47.468;18.806;2022-07-01T07:34:35;99702.41;;;33.43;43.20
68301;BME280;55146;47.468;18.806;2022-07-01T07:37:02;99699.06;;;33.64;43.78
68301;BME280;55146;47.468;18.806;2022-07-01T07:39:28;99699.97;;;33.81;40.53
68301;BME280;55146;47.468;18.806;2022-07-01T07:41:53;99700.62;;;33.68;39.71
68301;BME280;55146;47.468;18.806;2022-07-01T07:44:18;99707.47;;;33.91;41.16
68301;BME280;55146;47.468;18.806;2022-07-01T07:46:44;99702.31;;;34.22;38.81
68301;BME280;55146;47.468;18.806;2022-07-01T07:49:09;99708.03;;;34.38;38.53
68301;BME280;55146;47.468;18.806;2022-07-01T07:51:35;99703.56;;;34.37;37.33
68301;BME280;55146;47.468;18.806;2022-07-01T07:54:00;99702.25;;;34.25;38.34
68301;BME280;55146;47.468;18.806;2022-07-01T07:56:27;99707.34;;;34.14;37.15
68301;BME280;55146;47.468;18.806;2022-07-01T07:58:53;99708.03;;;34.38;38.39
68301;BME280;55146;47.468;18.806;2022-07-01T08:01:18;99715.34;;;34.39;35.81
68301;BME280;55146;47.468;18.806;2022-07-01T08:03:43;99719.28;;;34.61;36.55
68301;BME280;55146;47.468;18.806;2022-07-01T08:06:10;99717.69;;;34.76;35.51
68301;BME280;55146;47.468;18.806;2022-07-01T08:08:36;99720.00;;;34.98;35.74
68301;BME280;55146;47.468;18.806;2022-07-01T08:11:01;99720.09;;;34.62;35.71
68301;BME280;55146;47.468;18.806;2022-07-01T08:13:27;99724.72;;;34.88;35.46
68301;BME280;55146;47.468;18.806;2022-07-01T08:15:53;99726.59;;;35.11;35.47
68301;BME280;55146;47.468;18.806;2022-07-01T08:18:18;99723.25;;;35.28;35.47
68301;BME280;55146;47.468;18.806;2022-07-01T08:20:43;99715.59;;;35.09;33.64
68301;BME280;55146;47.468;18.806;2022-07-01T08:23:09;99730.44;;;35.04;34.67
68301;BME280;55146;47.468;18.806;2022-07-01T08:25:34;99728.41;;;35.34;35.63
68301;BME280;55146;47.468;18.806;2022-07-01T08:27:59;99728.56;;;35.43;34.46
68301;BME280;55146;47.468;18.806;2022-07-01T08:30:25;99722.69;;;35.34;34.90
68301;BME280;55146;47.468;18.806;2022-07-01T08:32:50;99726.31;;;35.21;35.08
68301;BME280;55146;47.468;18.806;2022-07-01T08:35:15;99722.00;;;35.29;34.07
68301;BME280;55146;47.468;18.806;2022-07-01T08:37:41;99718.63;;;35.47;34.78
68301;BME280;55146;47.468;18.806;2022-07-01T08:40:06;99723.09;;;35.48;35.84
68301;BME280;55146;47.468;18.806;2022-07-01T08:42:32;99726.16;;;35.41;34.62
68301;BME280;55146;47.468;18.806;2022-07-01T08:44:57;99723.16;;;35.16;33.91
68301;BME280;55146;47.468;18.806;2022-07-01T08:47:23;99723.00;;;35.23;33.65
68301;BME280;55146;47.468;18.806;2022-07-01T08:49:48;99717.56;;;35.41;34.58
68301;BME280;55146;47.468;18.806;2022-07-01T08:52:14;99719.31;;;35.51;32.99
68301;BME280;55146;47.468;18.806;2022-07-01T08:54:39;99716.44;;;35.51;32.73
68301;BME280;55146;47.468;18.806;2022-07-01T08:57:06;99714.03;;;35.79;32.03
68301;BME280;55146;47.468;18.806;2022-07-01T08:59:32;99715.22;;;35.65;32.04
68301;BME280;55146;47.468;18.806;2022-07-01T09:02:00;99718.06;;;35.52;31.75
68301;BME280;55146;47.468;18.806;2022-07-01T09:04:26;99702.63;;;35.62;32.14
68301;BME280;55146;47.468;18.806;2022-07-01T09:07:00;99711.53;;;36.06;32.11
68301;BME280;55146;47.468;18.806;2022-07-01T09:09:26;99705.72;;;36.35;30.95
68301;BME280;55146;47.468;18.806;2022-07-01T09:11:53;99700.91;;;36.44;30.23
68301;BME280;55146;47.468;18.806;2022-07-01T09:14:27;99709.03;;;36.08;31.22
68301;BME280;55146;47.468;18.806;2022-07-01T09:16:57;99693.75;;;36.11;31.30
68301;BME280;55146;47.468;18.806;2022-07-01T09:19:24;99706.16;;;36.08;31.15
68301;BME280;55146;47.468;18.806;2022-07-01T09:21:52;99695.72;;;35.89;30.61
68301;BME280;55146;47.468;18.806;2022-07-01T09:27:06;99701.09;;;35.99;27.66
68301;BME280;55146;47.468;18.806;2022-07-01T09:29:39;99700.66;;;36.01;29.02
68301;BME280;55146;47.468;18.806;2022-07-01T09:32:07;99700.22;;;36.28;29.54
68301;BME280;55146;47.468;18.806;2022-07-01T09:34:43;99692.28;;;36.06;28.87
68301;BME280;55146;47.468;18.806;2022-07-01T09:37:20;99697.22;;;36.06;28.82
68301;BME280;55146;47.468;18.806;2022-07-01T09:39:56;99693.22;;;36.41;27.52
68301;BME280;55146;47.468;18.806;2022-07-01T09:42:24;99692.53;;;36.37;27.04
68301;BME280;55146;47.468;18.806;2022-07-01T09:45:04;99700.81;;;36.35;29.26
68301;BME280;55146;47.468;18.806;2022-07-01T09:47:39;99694.13;;;36.38;27.58
68301;BME280;55146;47.468;18.806;2022-07-01T09:50:05;99692.31;;;36.32;28.16
68301;BME280;55146;47.468;18.806;2022-07-01T09:52:31;99697.94;;;36.95;28.18
68301;BME280;55146;47.468;18.806;2022-07-01T09:54:57;99690.84;;;36.87;27.06
68301;BME280;55146;47.468;18.806;2022-07-01T09:57:22;99698.00;;;37.04;27.90
68301;BME280;55146;47.468;18.806;2022-07-01T09:59:49;99683.88;;;36.75;28.83
68301;BME280;55146;47.468;18.806;2022-07-01T10:02:15;99684.47;;;37.05;28.25
68301;BME280;55146;47.468;18.806;2022-07-01T10:04:58;99688.03;;;37.09;28.04
68301;BME280;55146;47.468;18.806;2022-07-01T10:10:38;99687.53;;;36.88;29.64
68301;BME280;55146;47.468;18.806;2022-07-01T10:13:08;99695.72;;;36.52;28.25
68301;BME280;55146;47.468;18.806;2022-07-01T10:15:34;99685.25;;;36.83;30.74
68301;BME280;55146;47.468;18.806;2022-07-01T10:18:00;99687.19;;;36.86;28.95
68301;BME280;55146;47.468;18.806;2022-07-01T10:20:29;99691.69;;;36.75;29.67
68301;BME280;55146;47.468;18.806;2022-07-01T10:23:05;99677.12;;;36.57;29.36
68301;BME280;55146;47.468;18.806;2022-07-01T10:25:39;99677.12;;;36.69;29.17
68301;BME280;55146;47.468;18.806;2022-07-01T10:30:55;99686.88;;;37.06;28.30
68301;BME280;55146;47.468;18.806;2022-07-01T10:35:53;99683.31;;;36.68;28.49
68301;BME280;55146;47.468;18.806;2022-07-01T10:38:19;99679.97;;;36.82;28.36
68301;BME280;55146;47.468;18.806;2022-07-01T10:40:45;99672.97;;;37.17;28.32
68301;BME280;55146;47.468;18.806;2022-07-01T10:43:17;99665.41;;;37.54;27.91
68301;BME280;55146;47.468;18.806;2022-07-01T10:45:56;99667.25;;;37.61;28.92
68301;BME280;55146;47.468;18.806;2022-07-01T10:48:23;99670.84;;;37.52;27.95
68301;BME280;55146;47.468;18.806;2022-07-01T10:50:50;99671.03;;;37.36;27.50
68301;BME280;55146;47.468;18.806;2022-07-01T10:53:16;99665.44;;;36.98;27.13
68301;BME280;55146;47.468;18.806;2022-07-01T10:55:50;99670.97;;;37.27;28.00
68301;BME280;55146;47.468;18.806;2022-07-01T10:58:16;99657.69;;;37.42;28.79
68301;BME280;55146;47.468;18.806;2022-07-01T11:00:48;99655.12;;;37.66;27.05
68301;BME280;55146;47.468;18.806;2022-07-01T11:03:22;99661.19;;;37.59;27.96
68301;BME280;55146;47.468;18.806;2022-07-01T11:05:53;99654.84;;;37.73;28.43
68301;BME280;55146;47.468;18.806;2022-07-01T11:08:19;99662.28;;;38.23;27.90
68301;BME280;55146;47.468;18.806;2022-07-01T11:10:49;99658.50;;;37.95;26.66
68301;BME280;55146;47.468;18.806;2022-07-01T11:13:16;99658.91;;;37.85;27.95
68301;BME280;55146;47.468;18.806;2022-07-01T11:15:44;99658.44;;;37.86;28.64
68301;BME280;55146;47.468;18.806;2022-07-01T11:18:10;99645.22;;;37.89;27.89
68301;BME280;55146;47.468;18.806;2022-07-01T11:20:35;99647.12;;;37.61;26.97
68301;BME280;55146;47.468;18.806;2022-07-01T11:23:01;99645.59;;;37.69;27.77
68301;BME280;55146;47.468;18.806;2022-07-01T11:25:26;99633.91;;;37.42;27.14
68301;BME280;55146;47.468;18.806;2022-07-01T11:27:52;99641.94;;;36.69;27.38
68301;BME280;55146;47.468;18.806;2022-07-01T11:30:20;99634.78;;;36.73;27.85
68301;BME280;55146;47.468;18.806;2022-07-01T11:32:48;99635.28;;;36.72;29.62
68301;BME280;55146;47.468;18.806;2022-07-01T11:35:19;99623.22;;;36.99;29.93
68301;BME280;55146;47.468;18.806;2022-07-01T11:38:09;99622.47;;;36.85;28.02
68301;BME280;55146;47.468;18.806;2022-07-01T11:40:55;99624.00;;;36.99;29.46
68301;BME280;55146;47.468;18.806;2022-07-01T11:43:34;99605.41;;;37.04;27.38
68301;BME280;55146;47.468;18.806;2022-07-01T11:46:02;99617.25;;;37.28;29.59
68301;BME280;55146;47.468;18.806;2022-07-01T11:48:29;99619.72;;;37.16;27.85
68301;BME280;55146;47.468;18.806;2022-07-01T11:50:56;99621.50;;;37.23;28.25
68301;BME280;55146;47.468;18.806;2022-07-01T11:53:21;99607.50;;;37.03;27.93
68301;BME280;55146;47.468;18.806;2022-07-01T11:55:47;99604.47;;;37.28;27.77
68301;BME280;55146;47.468;18.806;2022-07-01T11:58:13;99606.25;;;36.92;27.58
68301;BME280;55146;47.468;18.806;2022-07-01T12:00:38;99586.97;;;36.70;26.26
68301;BME280;55146;47.468;18.806;2022-07-01T12:03:04;99591.84;;;37.04;28.83
68301;BME280;55146;47.468;18.806;2022-07-01T12:05:31;99596.22;;;37.09;27.39
68301;BME280;55146;47.468;18.806;2022-07-01T12:07:57;99595.41;;;37.08;28.01
68301;BME280;55146;47.468;18.806;2022-07-01T12:10:24;99594.56;;;36.64;29.32
68301;BME280;55146;47.468;18.806;2022-07-01T12:12:49;99595.47;;;36.61;27.34
68301;BME280;55146;47.468;18.806;2022-07-01T12:15:15;99593.19;;;36.69;27.84
68301;BME280;55146;47.468;18.806;2022-07-01T12:17:40;99580.06;;;36.46;28.75
68301;BME280;55146;47.468;18.806;2022-07-01T12:20:06;99583.53;;;36.63;27.95
68301;BME280;55146;47.468;18.806;2022-07-01T12:22:32;99578.53;;;36.88;28.30
68301;BME280;55146;47.468;18.806;2022-07-01T12:25:09;99582.44;;;36.82;28.12
68301;BME280;55146;47.468;18.806;2022-07-01T12:27:36;99583.47;;;36.88;26.14
68301;BME280;55146;47.468;18.806;2022-07-01T12:30:05;99576.00;;;36.91;26.80
68301;BME280;55146;47.468;18.806;2022-07-01T12:32:35;99563.62;;;36.81;27.28
68301;BME280;55146;47.468;18.806;2022-07-01T12:35:05;99561.84;;;36.96;26.63
68301;BME280;55146;47.468;18.806;2022-07-01T12:37:51;99564.84;;;36.93;26.97
68301;BME280;55146;47.468;18.806;2022-07-01T12:40:21;99567.31;;;37.03;26.40
68301;BME280;55146;47.468;18.806;2022-07-01T12:42:47;99564.84;;;36.93;25.81
68301;BME280;55146;47.468;18.806;2022-07-01T12:45:14;99568.91;;;36.82;25.97
68301;BME280;55146;47.468;18.806;2022-07-01T12:47:44;99563.28;;;36.79;24.71
68301;BME280;55146;47.468;18.806;2022-07-01T12:52:37;99545.91;;;36.61;24.89
68301;BME280;55146;47.468;18.806;2022-07-01T12:55:20;99543.19;;;36.35;25.65
68301;BME280;55146;47.468;18.806;2022-07-01T12:57:50;99539.47;;;36.47;27.08
68301;BME280;55146;47.468;18.806;2022-07-01T13:00:17;99534.25;;;36.55;28.71
68301;BME280;55146;47.468;18.806;2022-07-01T13:02:43;99528.50;;;36.33;27.94